<?xml version="1.0" encoding="UTF-8" standalone="no" ?>
<gpx xmlns="http://www.topografix.com/GPX/1/1" xmlns:xsi="http://www.w3.org/2001/XMLSchema-instance" xsi:schemaLocation="http://www.topografix.com/GPX/1/1 http://www.topografix.com/GPX/1/1/gpx.xsd" version="1.1" creator="VisuGPX - https://www.visugpx.com">
  <metadata>
    <name>LeLongeron_SevreBocage_20km</name>
    <desc><![CDATA[gnerando idor:7488015]]></desc>
  </metadata>
  <trk>
    <name><![CDATA[Longeron_SevreBocageVariante_20.5km-7488015]]></name>
    <extensions>
      <line xmlns="http://www.topografix.com/GPX/gpx_style/0/2">
        <color>0000FF</color>
        <width>4</width>
      </line>
    </extensions>
    <trkseg>
      <trkpt lat="47.01801" lon="-1.06525">
        <ele>108</ele>
        <time>2023-11-04T17:07:26Z</time>
      </trkpt>
      <trkpt lat="47.01806" lon="-1.06498">
        <ele>108</ele>
        <time>2023-11-04T17:07:51Z</time>
      </trkpt>
      <trkpt lat="47.01803" lon="-1.06471">
        <ele>108</ele>
        <time>2023-11-04T17:08:16Z</time>
      </trkpt>
      <trkpt lat="47.01815" lon="-1.0642">
        <ele>109</ele>
        <time>2023-11-04T17:09:05Z</time>
      </trkpt>
      <trkpt lat="47.01814" lon="-1.06393">
        <ele>109</ele>
        <time>2023-11-04T17:09:30Z</time>
      </trkpt>
      <trkpt lat="47.01803" lon="-1.0637">
        <ele>109</ele>
        <time>2023-11-04T17:09:56Z</time>
      </trkpt>
      <trkpt lat="47.0179" lon="-1.06319">
        <ele>110</ele>
        <time>2023-11-04T17:10:45Z</time>
      </trkpt>
      <trkpt lat="47.01773" lon="-1.06305">
        <ele>109</ele>
        <time>2023-11-04T17:11:11Z</time>
      </trkpt>
      <trkpt lat="47.01756" lon="-1.06257">
        <ele>109</ele>
        <time>2023-11-04T17:12:00Z</time>
      </trkpt>
      <trkpt lat="47.01755" lon="-1.0623">
        <ele>109</ele>
        <time>2023-11-04T17:12:25Z</time>
      </trkpt>
      <trkpt lat="47.01741" lon="-1.0615">
        <ele>110</ele>
        <time>2023-11-04T17:13:40Z</time>
      </trkpt>
      <trkpt lat="47.01734" lon="-1.06124">
        <ele>111</ele>
        <time>2023-11-04T17:14:06Z</time>
      </trkpt>
      <trkpt lat="47.01717" lon="-1.0611">
        <ele>112</ele>
        <time>2023-11-04T17:14:32Z</time>
      </trkpt>
      <trkpt lat="47.01688" lon="-1.06076">
        <ele>113</ele>
        <time>2023-11-04T17:15:21Z</time>
      </trkpt>
      <trkpt lat="47.01675" lon="-1.06094">
        <ele>113</ele>
        <time>2023-11-04T17:15:45Z</time>
      </trkpt>
      <trkpt lat="47.0166" lon="-1.06107">
        <ele>112</ele>
        <time>2023-11-04T17:16:08Z</time>
      </trkpt>
      <trkpt lat="47.01642" lon="-1.06114">
        <ele>112</ele>
        <time>2023-11-04T17:16:33Z</time>
      </trkpt>
      <trkpt lat="47.01629" lon="-1.06095">
        <ele>113</ele>
        <time>2023-11-04T17:16:58Z</time>
      </trkpt>
      <trkpt lat="47.01619" lon="-1.06071">
        <ele>114</ele>
        <time>2023-11-04T17:17:23Z</time>
      </trkpt>
      <trkpt lat="47.016" lon="-1.06072">
        <ele>115</ele>
        <time>2023-11-04T17:17:49Z</time>
      </trkpt>
      <trkpt lat="47.01585" lon="-1.06087">
        <ele>115</ele>
        <time>2023-11-04T17:18:13Z</time>
      </trkpt>
      <trkpt lat="47.01573" lon="-1.06108">
        <ele>114</ele>
        <time>2023-11-04T17:18:38Z</time>
      </trkpt>
      <trkpt lat="47.01567" lon="-1.06133">
        <ele>113</ele>
        <time>2023-11-04T17:19:02Z</time>
      </trkpt>
      <trkpt lat="47.01551" lon="-1.06148">
        <ele>112</ele>
        <time>2023-11-04T17:19:27Z</time>
      </trkpt>
      <trkpt lat="47.01515" lon="-1.06165">
        <ele>111</ele>
        <time>2023-11-04T17:20:18Z</time>
      </trkpt>
      <trkpt lat="47.01497" lon="-1.06166">
        <ele>111</ele>
        <time>2023-11-04T17:20:42Z</time>
      </trkpt>
      <trkpt lat="47.0146" lon="-1.06175">
        <ele>107</ele>
        <time>2023-11-04T17:21:32Z</time>
      </trkpt>
      <trkpt lat="47.01407" lon="-1.06202">
        <ele>103</ele>
        <time>2023-11-04T17:22:47Z</time>
      </trkpt>
      <trkpt lat="47.01362" lon="-1.06254">
        <ele>101</ele>
        <time>2023-11-04T17:24:03Z</time>
      </trkpt>
      <trkpt lat="47.01324" lon="-1.06312">
        <ele>96</ele>
        <time>2023-11-04T17:25:16Z</time>
      </trkpt>
      <trkpt lat="47.01296" lon="-1.06348">
        <ele>90</ele>
        <time>2023-11-04T17:26:06Z</time>
      </trkpt>
      <trkpt lat="47.0128" lon="-1.06361">
        <ele>88</ele>
        <time>2023-11-04T17:26:30Z</time>
      </trkpt>
      <trkpt lat="47.01262" lon="-1.06368">
        <ele>85</ele>
        <time>2023-11-04T17:26:55Z</time>
      </trkpt>
      <trkpt lat="47.01246" lon="-1.06378">
        <ele>82</ele>
        <time>2023-11-04T17:27:18Z</time>
      </trkpt>
      <trkpt lat="47.01228" lon="-1.06371">
        <ele>80</ele>
        <time>2023-11-04T17:27:43Z</time>
      </trkpt>
      <trkpt lat="47.01192" lon="-1.06362">
        <ele>76</ele>
        <time>2023-11-04T17:28:32Z</time>
      </trkpt>
      <trkpt lat="47.01125" lon="-1.06317">
        <ele>71</ele>
        <time>2023-11-04T17:30:10Z</time>
      </trkpt>
      <trkpt lat="47.01097" lon="-1.06283">
        <ele>70</ele>
        <time>2023-11-04T17:30:59Z</time>
      </trkpt>
      <trkpt lat="47.0107" lon="-1.06245">
        <ele>70</ele>
        <time>2023-11-04T17:31:49Z</time>
      </trkpt>
      <trkpt lat="47.01063" lon="-1.06219">
        <ele>71</ele>
        <time>2023-11-04T17:32:14Z</time>
      </trkpt>
      <trkpt lat="47.0105" lon="-1.062">
        <ele>71</ele>
        <time>2023-11-04T17:32:39Z</time>
      </trkpt>
      <trkpt lat="47.01049" lon="-1.06173">
        <ele>72</ele>
        <time>2023-11-04T17:33:03Z</time>
      </trkpt>
      <trkpt lat="47.01032" lon="-1.0616">
        <ele>70</ele>
        <time>2023-11-04T17:33:29Z</time>
      </trkpt>
      <trkpt lat="47.01014" lon="-1.06161">
        <ele>68</ele>
        <time>2023-11-04T17:33:53Z</time>
      </trkpt>
      <trkpt lat="47.00995" lon="-1.06157">
        <ele>65</ele>
        <time>2023-11-04T17:34:18Z</time>
      </trkpt>
      <trkpt lat="47.00977" lon="-1.0615">
        <ele>64</ele>
        <time>2023-11-04T17:34:43Z</time>
      </trkpt>
      <trkpt lat="47.00962" lon="-1.06135">
        <ele>63</ele>
        <time>2023-11-04T17:35:08Z</time>
      </trkpt>
      <trkpt lat="47.00921" lon="-1.06081">
        <ele>61</ele>
        <time>2023-11-04T17:36:21Z</time>
      </trkpt>
      <trkpt lat="47.00922" lon="-1.06025">
        <ele>63</ele>
        <time>2023-11-04T17:37:12Z</time>
      </trkpt>
      <trkpt lat="47.00912" lon="-1.05959">
        <ele>66</ele>
        <time>2023-11-04T17:38:14Z</time>
      </trkpt>
      <trkpt lat="47.00911" lon="-1.05932">
        <ele>68</ele>
        <time>2023-11-04T17:38:38Z</time>
      </trkpt>
      <trkpt lat="47.00901" lon="-1.05875">
        <ele>69</ele>
        <time>2023-11-04T17:39:32Z</time>
      </trkpt>
      <trkpt lat="47.00902" lon="-1.05848">
        <ele>69</ele>
        <time>2023-11-04T17:39:56Z</time>
      </trkpt>
      <trkpt lat="47.00898" lon="-1.05822">
        <ele>69</ele>
        <time>2023-11-04T17:40:21Z</time>
      </trkpt>
      <trkpt lat="47.00901" lon="-1.05767">
        <ele>69</ele>
        <time>2023-11-04T17:41:11Z</time>
      </trkpt>
      <trkpt lat="47.00911" lon="-1.05745">
        <ele>71</ele>
        <time>2023-11-04T17:41:35Z</time>
      </trkpt>
      <trkpt lat="47.00927" lon="-1.05725">
        <ele>76</ele>
        <time>2023-11-04T17:42:03Z</time>
      </trkpt>
      <trkpt lat="47.00988" lon="-1.0566">
        <ele>87</ele>
        <time>2023-11-04T17:43:44Z</time>
      </trkpt>
      <trkpt lat="47.0099" lon="-1.05632">
        <ele>90</ele>
        <time>2023-11-04T17:44:09Z</time>
      </trkpt>
      <trkpt lat="47.00998" lon="-1.05608">
        <ele>93</ele>
        <time>2023-11-04T17:44:33Z</time>
      </trkpt>
      <trkpt lat="47.01009" lon="-1.05556">
        <ele>97</ele>
        <time>2023-11-04T17:45:23Z</time>
      </trkpt>
      <trkpt lat="47.01018" lon="-1.05533">
        <ele>99</ele>
        <time>2023-11-04T17:45:47Z</time>
      </trkpt>
      <trkpt lat="47.01023" lon="-1.05507">
        <ele>100</ele>
        <time>2023-11-04T17:46:12Z</time>
      </trkpt>
      <trkpt lat="47.0102" lon="-1.05481">
        <ele>100</ele>
        <time>2023-11-04T17:46:36Z</time>
      </trkpt>
      <trkpt lat="47.0097" lon="-1.05402">
        <ele>101</ele>
        <time>2023-11-04T17:48:14Z</time>
      </trkpt>
      <trkpt lat="47.00965" lon="-1.05375">
        <ele>103</ele>
        <time>2023-11-04T17:48:39Z</time>
      </trkpt>
      <trkpt lat="47.00955" lon="-1.05352">
        <ele>103</ele>
        <time>2023-11-04T17:49:04Z</time>
      </trkpt>
      <trkpt lat="47.00967" lon="-1.0533">
        <ele>105</ele>
        <time>2023-11-04T17:49:30Z</time>
      </trkpt>
      <trkpt lat="47.01037" lon="-1.05244">
        <ele>108</ele>
        <time>2023-11-04T17:51:32Z</time>
      </trkpt>
      <trkpt lat="47.01047" lon="-1.05221">
        <ele>108</ele>
        <time>2023-11-04T17:51:56Z</time>
      </trkpt>
      <trkpt lat="47.01034" lon="-1.05171">
        <ele>108</ele>
        <time>2023-11-04T17:52:45Z</time>
      </trkpt>
      <trkpt lat="47.01031" lon="-1.05116">
        <ele>108</ele>
        <time>2023-11-04T17:53:35Z</time>
      </trkpt>
      <trkpt lat="47.01026" lon="-1.0509">
        <ele>108</ele>
        <time>2023-11-04T17:54:00Z</time>
      </trkpt>
      <trkpt lat="47.01" lon="-1.04989">
        <ele>107</ele>
        <time>2023-11-04T17:55:38Z</time>
      </trkpt>
      <trkpt lat="47.0099" lon="-1.04935">
        <ele>106</ele>
        <time>2023-11-04T17:56:29Z</time>
      </trkpt>
      <trkpt lat="47.00985" lon="-1.04854">
        <ele>104</ele>
        <time>2023-11-04T17:57:43Z</time>
      </trkpt>
      <trkpt lat="47.00979" lon="-1.04801">
        <ele>104</ele>
        <time>2023-11-04T17:58:32Z</time>
      </trkpt>
      <trkpt lat="47.00961" lon="-1.048">
        <ele>103</ele>
        <time>2023-11-04T17:58:56Z</time>
      </trkpt>
      <trkpt lat="47.00946" lon="-1.04815">
        <ele>102</ele>
        <time>2023-11-04T17:59:20Z</time>
      </trkpt>
      <trkpt lat="47.00929" lon="-1.04827">
        <ele>102</ele>
        <time>2023-11-04T17:59:45Z</time>
      </trkpt>
      <trkpt lat="47.00878" lon="-1.04852">
        <ele>97</ele>
        <time>2023-11-04T18:00:57Z</time>
      </trkpt>
      <trkpt lat="47.00859" lon="-1.04852">
        <ele>95</ele>
        <time>2023-11-04T18:01:22Z</time>
      </trkpt>
      <trkpt lat="47.00841" lon="-1.04846">
        <ele>93</ele>
        <time>2023-11-04T18:01:47Z</time>
      </trkpt>
      <trkpt lat="47.0083" lon="-1.04824">
        <ele>91</ele>
        <time>2023-11-04T18:02:12Z</time>
      </trkpt>
      <trkpt lat="47.00823" lon="-1.04798">
        <ele>88</ele>
        <time>2023-11-04T18:02:37Z</time>
      </trkpt>
      <trkpt lat="47.00817" lon="-1.04717">
        <ele>83</ele>
        <time>2023-11-04T18:03:52Z</time>
      </trkpt>
      <trkpt lat="47.00813" lon="-1.04691">
        <ele>81</ele>
        <time>2023-11-04T18:04:16Z</time>
      </trkpt>
      <trkpt lat="47.00811" lon="-1.04637">
        <ele>78</ele>
        <time>2023-11-04T18:05:05Z</time>
      </trkpt>
      <trkpt lat="47.00799" lon="-1.04617">
        <ele>75</ele>
        <time>2023-11-04T18:05:29Z</time>
      </trkpt>
      <trkpt lat="47.0079" lon="-1.0459">
        <ele>72</ele>
        <time>2023-11-04T18:05:57Z</time>
      </trkpt>
      <trkpt lat="47.00777" lon="-1.04572">
        <ele>71</ele>
        <time>2023-11-04T18:06:20Z</time>
      </trkpt>
      <trkpt lat="47.0074" lon="-1.04578">
        <ele>66</ele>
        <time>2023-11-04T18:07:10Z</time>
      </trkpt>
      <trkpt lat="47.00724" lon="-1.04563">
        <ele>65</ele>
        <time>2023-11-04T18:07:35Z</time>
      </trkpt>
      <trkpt lat="47.00714" lon="-1.04541">
        <ele>65</ele>
        <time>2023-11-04T18:07:59Z</time>
      </trkpt>
      <trkpt lat="47.00711" lon="-1.04515">
        <ele>66</ele>
        <time>2023-11-04T18:08:23Z</time>
      </trkpt>
      <trkpt lat="47.00704" lon="-1.04489">
        <ele>66</ele>
        <time>2023-11-04T18:08:49Z</time>
      </trkpt>
      <trkpt lat="47.00706" lon="-1.04462">
        <ele>68</ele>
        <time>2023-11-04T18:09:14Z</time>
      </trkpt>
      <trkpt lat="47.00698" lon="-1.04438">
        <ele>68</ele>
        <time>2023-11-04T18:09:38Z</time>
      </trkpt>
      <trkpt lat="47.00633" lon="-1.04343">
        <ele>70</ele>
        <time>2023-11-04T18:11:40Z</time>
      </trkpt>
      <trkpt lat="47.00608" lon="-1.04302">
        <ele>68</ele>
        <time>2023-11-04T18:12:30Z</time>
      </trkpt>
      <trkpt lat="47.00572" lon="-1.04291">
        <ele>64</ele>
        <time>2023-11-04T18:13:20Z</time>
      </trkpt>
      <trkpt lat="47.00535" lon="-1.04291">
        <ele>61</ele>
        <time>2023-11-04T18:14:09Z</time>
      </trkpt>
      <trkpt lat="47.00521" lon="-1.04274">
        <ele>59</ele>
        <time>2023-11-04T18:14:33Z</time>
      </trkpt>
      <trkpt lat="47.00486" lon="-1.04256">
        <ele>58</ele>
        <time>2023-11-04T18:15:23Z</time>
      </trkpt>
      <trkpt lat="47.00452" lon="-1.04232">
        <ele>60</ele>
        <time>2023-11-04T18:16:13Z</time>
      </trkpt>
      <trkpt lat="47.00437" lon="-1.04216">
        <ele>61</ele>
        <time>2023-11-04T18:16:38Z</time>
      </trkpt>
      <trkpt lat="47.00427" lon="-1.04194">
        <ele>62</ele>
        <time>2023-11-04T18:17:02Z</time>
      </trkpt>
      <trkpt lat="47.00413" lon="-1.04175">
        <ele>64</ele>
        <time>2023-11-04T18:17:27Z</time>
      </trkpt>
      <trkpt lat="47.0041" lon="-1.04149">
        <ele>66</ele>
        <time>2023-11-04T18:17:51Z</time>
      </trkpt>
      <trkpt lat="47.00417" lon="-1.04125">
        <ele>66</ele>
        <time>2023-11-04T18:18:15Z</time>
      </trkpt>
      <trkpt lat="47.00429" lon="-1.04103">
        <ele>66</ele>
        <time>2023-11-04T18:18:41Z</time>
      </trkpt>
      <trkpt lat="47.00445" lon="-1.04025">
        <ele>68</ele>
        <time>2023-11-04T18:19:55Z</time>
      </trkpt>
      <trkpt lat="47.00448" lon="-1.03998">
        <ele>69</ele>
        <time>2023-11-04T18:20:20Z</time>
      </trkpt>
      <trkpt lat="47.00465" lon="-1.0399">
        <ele>67</ele>
        <time>2023-11-04T18:20:44Z</time>
      </trkpt>
      <trkpt lat="47.00502" lon="-1.04004">
        <ele>62</ele>
        <time>2023-11-04T18:21:35Z</time>
      </trkpt>
      <trkpt lat="47.0052" lon="-1.04005">
        <ele>61</ele>
        <time>2023-11-04T18:21:59Z</time>
      </trkpt>
      <trkpt lat="47.00519" lon="-1.03978">
        <ele>61</ele>
        <time>2023-11-04T18:22:23Z</time>
      </trkpt>
      <trkpt lat="47.00514" lon="-1.03952">
        <ele>61</ele>
        <time>2023-11-04T18:22:48Z</time>
      </trkpt>
      <trkpt lat="47.00501" lon="-1.03901">
        <ele>61</ele>
        <time>2023-11-04T18:23:37Z</time>
      </trkpt>
      <trkpt lat="47.00491" lon="-1.03878">
        <ele>62</ele>
        <time>2023-11-04T18:24:02Z</time>
      </trkpt>
      <trkpt lat="47.00484" lon="-1.03852">
        <ele>62</ele>
        <time>2023-11-04T18:24:28Z</time>
      </trkpt>
      <trkpt lat="47.00471" lon="-1.03774">
        <ele>62</ele>
        <time>2023-11-04T18:25:41Z</time>
      </trkpt>
      <trkpt lat="47.00461" lon="-1.03751">
        <ele>62</ele>
        <time>2023-11-04T18:26:05Z</time>
      </trkpt>
      <trkpt lat="47.00447" lon="-1.03734">
        <ele>63</ele>
        <time>2023-11-04T18:26:30Z</time>
      </trkpt>
      <trkpt lat="47.00431" lon="-1.03686">
        <ele>61</ele>
        <time>2023-11-04T18:27:18Z</time>
      </trkpt>
      <trkpt lat="47.0042" lon="-1.03663">
        <ele>60</ele>
        <time>2023-11-04T18:27:44Z</time>
      </trkpt>
      <trkpt lat="47.00413" lon="-1.03637">
        <ele>59</ele>
        <time>2023-11-04T18:28:09Z</time>
      </trkpt>
      <trkpt lat="47.0041" lon="-1.03583">
        <ele>58</ele>
        <time>2023-11-04T18:28:59Z</time>
      </trkpt>
      <trkpt lat="47.00373" lon="-1.0359">
        <ele>66</ele>
        <time>2023-11-04T18:29:48Z</time>
      </trkpt>
      <trkpt lat="47.00355" lon="-1.03589">
        <ele>70</ele>
        <time>2023-11-04T18:30:12Z</time>
      </trkpt>
      <trkpt lat="47.00335" lon="-1.03456">
        <ele>67</ele>
        <time>2023-11-04T18:32:16Z</time>
      </trkpt>
      <trkpt lat="47.00334" lon="-1.03429">
        <ele>66</ele>
        <time>2023-11-04T18:32:41Z</time>
      </trkpt>
      <trkpt lat="47.0033" lon="-1.03403">
        <ele>67</ele>
        <time>2023-11-04T18:33:05Z</time>
      </trkpt>
      <trkpt lat="47.00335" lon="-1.03376">
        <ele>68</ele>
        <time>2023-11-04T18:33:31Z</time>
      </trkpt>
      <trkpt lat="47.00359" lon="-1.03334">
        <ele>67</ele>
        <time>2023-11-04T18:34:21Z</time>
      </trkpt>
      <trkpt lat="47.00376" lon="-1.03257">
        <ele>68</ele>
        <time>2023-11-04T18:35:34Z</time>
      </trkpt>
      <trkpt lat="47.00399" lon="-1.03214">
        <ele>63</ele>
        <time>2023-11-04T18:36:24Z</time>
      </trkpt>
      <trkpt lat="47.00404" lon="-1.03188">
        <ele>62</ele>
        <time>2023-11-04T18:36:49Z</time>
      </trkpt>
      <trkpt lat="47.004" lon="-1.03134">
        <ele>64</ele>
        <time>2023-11-04T18:37:38Z</time>
      </trkpt>
      <trkpt lat="47.00385" lon="-1.03027">
        <ele>69</ele>
        <time>2023-11-04T18:39:17Z</time>
      </trkpt>
      <trkpt lat="47.00386" lon="-1.03">
        <ele>69</ele>
        <time>2023-11-04T18:39:42Z</time>
      </trkpt>
      <trkpt lat="47.00392" lon="-1.02974">
        <ele>67</ele>
        <time>2023-11-04T18:40:07Z</time>
      </trkpt>
      <trkpt lat="47.00389" lon="-1.02866">
        <ele>67</ele>
        <time>2023-11-04T18:41:45Z</time>
      </trkpt>
      <trkpt lat="47.00378" lon="-1.02814">
        <ele>69</ele>
        <time>2023-11-04T18:42:35Z</time>
      </trkpt>
      <trkpt lat="47.00363" lon="-1.02763">
        <ele>74</ele>
        <time>2023-11-04T18:43:25Z</time>
      </trkpt>
      <trkpt lat="47.00366" lon="-1.0268">
        <ele>74</ele>
        <time>2023-11-04T18:44:41Z</time>
      </trkpt>
      <trkpt lat="47.00369" lon="-1.02654">
        <ele>74</ele>
        <time>2023-11-04T18:45:05Z</time>
      </trkpt>
      <trkpt lat="47.00368" lon="-1.02628">
        <ele>74</ele>
        <time>2023-11-04T18:45:29Z</time>
      </trkpt>
      <trkpt lat="47.00372" lon="-1.02602">
        <ele>74</ele>
        <time>2023-11-04T18:45:53Z</time>
      </trkpt>
      <trkpt lat="47.00371" lon="-1.02547">
        <ele>73</ele>
        <time>2023-11-04T18:46:43Z</time>
      </trkpt>
      <trkpt lat="47.00374" lon="-1.02493">
        <ele>71</ele>
        <time>2023-11-04T18:47:32Z</time>
      </trkpt>
      <trkpt lat="47.00368" lon="-1.0244">
        <ele>72</ele>
        <time>2023-11-04T18:48:21Z</time>
      </trkpt>
      <trkpt lat="47.00354" lon="-1.02423">
        <ele>76</ele>
        <time>2023-11-04T18:48:46Z</time>
      </trkpt>
      <trkpt lat="47.00361" lon="-1.02369">
        <ele>75</ele>
        <time>2023-11-04T18:49:36Z</time>
      </trkpt>
      <trkpt lat="47.00361" lon="-1.02397">
        <ele>74</ele>
        <time>2023-11-04T18:50:01Z</time>
      </trkpt>
      <trkpt lat="47.00374" lon="-1.02416">
        <ele>70</ele>
        <time>2023-11-04T18:50:26Z</time>
      </trkpt>
      <trkpt lat="47.00378" lon="-1.02442">
        <ele>69</ele>
        <time>2023-11-04T18:50:50Z</time>
      </trkpt>
      <trkpt lat="47.00384" lon="-1.0236">
        <ele>69</ele>
        <time>2023-11-04T18:52:05Z</time>
      </trkpt>
      <trkpt lat="47.00378" lon="-1.02334">
        <ele>71</ele>
        <time>2023-11-04T18:52:30Z</time>
      </trkpt>
      <trkpt lat="47.00383" lon="-1.02307">
        <ele>70</ele>
        <time>2023-11-04T18:52:55Z</time>
      </trkpt>
      <trkpt lat="47.00381" lon="-1.0228">
        <ele>70</ele>
        <time>2023-11-04T18:53:20Z</time>
      </trkpt>
      <trkpt lat="47.0039" lon="-1.02257">
        <ele>68</ele>
        <time>2023-11-04T18:53:44Z</time>
      </trkpt>
      <trkpt lat="47.00402" lon="-1.02235">
        <ele>64</ele>
        <time>2023-11-04T18:54:10Z</time>
      </trkpt>
      <trkpt lat="47.00416" lon="-1.02214">
        <ele>61</ele>
        <time>2023-11-04T18:54:37Z</time>
      </trkpt>
      <trkpt lat="47.00448" lon="-1.02185">
        <ele>62</ele>
        <time>2023-11-04T18:55:27Z</time>
      </trkpt>
      <trkpt lat="47.00462" lon="-1.02167">
        <ele>62</ele>
        <time>2023-11-04T18:55:52Z</time>
      </trkpt>
      <trkpt lat="47.0047" lon="-1.02143">
        <ele>62</ele>
        <time>2023-11-04T18:56:16Z</time>
      </trkpt>
      <trkpt lat="47.00477" lon="-1.02117">
        <ele>63</ele>
        <time>2023-11-04T18:56:41Z</time>
      </trkpt>
      <trkpt lat="47.00485" lon="-1.02065">
        <ele>64</ele>
        <time>2023-11-04T18:57:30Z</time>
      </trkpt>
      <trkpt lat="47.00498" lon="-1.01929">
        <ele>66</ele>
        <time>2023-11-04T18:59:35Z</time>
      </trkpt>
      <trkpt lat="47.00497" lon="-1.01902">
        <ele>65</ele>
        <time>2023-11-04T18:59:59Z</time>
      </trkpt>
      <trkpt lat="47.00488" lon="-1.01849">
        <ele>63</ele>
        <time>2023-11-04T19:00:49Z</time>
      </trkpt>
      <trkpt lat="47.00479" lon="-1.01826">
        <ele>62</ele>
        <time>2023-11-04T19:01:13Z</time>
      </trkpt>
      <trkpt lat="47.00467" lon="-1.01804">
        <ele>62</ele>
        <time>2023-11-04T19:01:39Z</time>
      </trkpt>
      <trkpt lat="47.00452" lon="-1.01787">
        <ele>61</ele>
        <time>2023-11-04T19:02:04Z</time>
      </trkpt>
      <trkpt lat="47.00435" lon="-1.01776">
        <ele>60</ele>
        <time>2023-11-04T19:02:29Z</time>
      </trkpt>
      <trkpt lat="47.00404" lon="-1.01746">
        <ele>60</ele>
        <time>2023-11-04T19:03:19Z</time>
      </trkpt>
      <trkpt lat="47.00369" lon="-1.01725">
        <ele>61</ele>
        <time>2023-11-04T19:04:09Z</time>
      </trkpt>
      <trkpt lat="47.00355" lon="-1.01707">
        <ele>61</ele>
        <time>2023-11-04T19:04:34Z</time>
      </trkpt>
      <trkpt lat="47.00322" lon="-1.01681">
        <ele>62</ele>
        <time>2023-11-04T19:05:24Z</time>
      </trkpt>
      <trkpt lat="47.00263" lon="-1.01577">
        <ele>60</ele>
        <time>2023-11-04T19:07:27Z</time>
      </trkpt>
      <trkpt lat="47.00271" lon="-1.01553">
        <ele>61</ele>
        <time>2023-11-04T19:07:51Z</time>
      </trkpt>
      <trkpt lat="47.00256" lon="-1.01601">
        <ele>62</ele>
        <time>2023-11-04T19:08:39Z</time>
      </trkpt>
      <trkpt lat="47.00252" lon="-1.01629">
        <ele>65</ele>
        <time>2023-11-04T19:09:05Z</time>
      </trkpt>
      <trkpt lat="47.00255" lon="-1.01657">
        <ele>67</ele>
        <time>2023-11-04T19:09:31Z</time>
      </trkpt>
      <trkpt lat="47.00267" lon="-1.01678">
        <ele>68</ele>
        <time>2023-11-04T19:09:56Z</time>
      </trkpt>
      <trkpt lat="47.00298" lon="-1.0171">
        <ele>67</ele>
        <time>2023-11-04T19:10:47Z</time>
      </trkpt>
      <trkpt lat="47.00327" lon="-1.0178">
        <ele>68</ele>
        <time>2023-11-04T19:12:01Z</time>
      </trkpt>
      <trkpt lat="47.0036" lon="-1.01878">
        <ele>71</ele>
        <time>2023-11-04T19:13:41Z</time>
      </trkpt>
      <trkpt lat="47.00378" lon="-1.01984">
        <ele>75</ele>
        <time>2023-11-04T19:15:20Z</time>
      </trkpt>
      <trkpt lat="47.00372" lon="-1.02065">
        <ele>77</ele>
        <time>2023-11-04T19:16:34Z</time>
      </trkpt>
      <trkpt lat="47.0035" lon="-1.02198">
        <ele>83</ele>
        <time>2023-11-04T19:18:39Z</time>
      </trkpt>
      <trkpt lat="47.00338" lon="-1.02219">
        <ele>86</ele>
        <time>2023-11-04T19:19:04Z</time>
      </trkpt>
      <trkpt lat="47.00322" lon="-1.02235">
        <ele>89</ele>
        <time>2023-11-04T19:19:30Z</time>
      </trkpt>
      <trkpt lat="47.00311" lon="-1.02256">
        <ele>90</ele>
        <time>2023-11-04T19:19:54Z</time>
      </trkpt>
      <trkpt lat="47.00305" lon="-1.02283">
        <ele>91</ele>
        <time>2023-11-04T19:20:19Z</time>
      </trkpt>
      <trkpt lat="47.00307" lon="-1.02309">
        <ele>89</ele>
        <time>2023-11-04T19:20:43Z</time>
      </trkpt>
      <trkpt lat="47.00302" lon="-1.02363">
        <ele>88</ele>
        <time>2023-11-04T19:21:33Z</time>
      </trkpt>
      <trkpt lat="47.00321" lon="-1.02366">
        <ele>85</ele>
        <time>2023-11-04T19:21:58Z</time>
      </trkpt>
      <trkpt lat="47.00305" lon="-1.02416">
        <ele>85</ele>
        <time>2023-11-04T19:22:49Z</time>
      </trkpt>
      <trkpt lat="47.00275" lon="-1.02449">
        <ele>90</ele>
        <time>2023-11-04T19:23:39Z</time>
      </trkpt>
      <trkpt lat="47.00257" lon="-1.02459">
        <ele>92</ele>
        <time>2023-11-04T19:24:04Z</time>
      </trkpt>
      <trkpt lat="47.00221" lon="-1.02472">
        <ele>97</ele>
        <time>2023-11-04T19:24:54Z</time>
      </trkpt>
      <trkpt lat="47.00204" lon="-1.02482">
        <ele>99</ele>
        <time>2023-11-04T19:25:18Z</time>
      </trkpt>
      <trkpt lat="47.00186" lon="-1.02489">
        <ele>101</ele>
        <time>2023-11-04T19:25:43Z</time>
      </trkpt>
      <trkpt lat="47.00152" lon="-1.02511">
        <ele>104</ele>
        <time>2023-11-04T19:26:33Z</time>
      </trkpt>
      <trkpt lat="47.00134" lon="-1.02511">
        <ele>104</ele>
        <time>2023-11-04T19:26:57Z</time>
      </trkpt>
      <trkpt lat="47.00116" lon="-1.02506">
        <ele>104</ele>
        <time>2023-11-04T19:27:21Z</time>
      </trkpt>
      <trkpt lat="47.00099" lon="-1.02498">
        <ele>104</ele>
        <time>2023-11-04T19:27:45Z</time>
      </trkpt>
      <trkpt lat="47.00081" lon="-1.02496">
        <ele>104</ele>
        <time>2023-11-04T19:28:09Z</time>
      </trkpt>
      <trkpt lat="47.00062" lon="-1.02497">
        <ele>105</ele>
        <time>2023-11-04T19:28:34Z</time>
      </trkpt>
      <trkpt lat="47.00044" lon="-1.02504">
        <ele>106</ele>
        <time>2023-11-04T19:28:59Z</time>
      </trkpt>
      <trkpt lat="47.00026" lon="-1.02507">
        <ele>107</ele>
        <time>2023-11-04T19:29:24Z</time>
      </trkpt>
      <trkpt lat="46.9999" lon="-1.02518">
        <ele>109</ele>
        <time>2023-11-04T19:30:13Z</time>
      </trkpt>
      <trkpt lat="46.99935" lon="-1.02541">
        <ele>112</ele>
        <time>2023-11-04T19:31:29Z</time>
      </trkpt>
      <trkpt lat="46.99918" lon="-1.02552">
        <ele>112</ele>
        <time>2023-11-04T19:31:54Z</time>
      </trkpt>
      <trkpt lat="46.99903" lon="-1.02569">
        <ele>113</ele>
        <time>2023-11-04T19:32:19Z</time>
      </trkpt>
      <trkpt lat="46.99887" lon="-1.02582">
        <ele>113</ele>
        <time>2023-11-04T19:32:43Z</time>
      </trkpt>
      <trkpt lat="46.99851" lon="-1.02573">
        <ele>114</ele>
        <time>2023-11-04T19:33:32Z</time>
      </trkpt>
      <trkpt lat="46.99833" lon="-1.02578">
        <ele>114</ele>
        <time>2023-11-04T19:33:57Z</time>
      </trkpt>
      <trkpt lat="46.99818" lon="-1.02594">
        <ele>115</ele>
        <time>2023-11-04T19:34:21Z</time>
      </trkpt>
      <trkpt lat="46.99785" lon="-1.02619">
        <ele>116</ele>
        <time>2023-11-04T19:35:11Z</time>
      </trkpt>
      <trkpt lat="46.99754" lon="-1.02652">
        <ele>118</ele>
        <time>2023-11-04T19:36:02Z</time>
      </trkpt>
      <trkpt lat="46.9966" lon="-1.02737">
        <ele>124</ele>
        <time>2023-11-04T19:38:29Z</time>
      </trkpt>
      <trkpt lat="46.99643" lon="-1.02749">
        <ele>125</ele>
        <time>2023-11-04T19:38:55Z</time>
      </trkpt>
      <trkpt lat="46.99536" lon="-1.02801">
        <ele>129</ele>
        <time>2023-11-04T19:41:25Z</time>
      </trkpt>
      <trkpt lat="46.99522" lon="-1.02818">
        <ele>130</ele>
        <time>2023-11-04T19:41:49Z</time>
      </trkpt>
      <trkpt lat="46.99508" lon="-1.02869">
        <ele>130</ele>
        <time>2023-11-04T19:42:39Z</time>
      </trkpt>
      <trkpt lat="46.99502" lon="-1.02896">
        <ele>130</ele>
        <time>2023-11-04T19:43:05Z</time>
      </trkpt>
      <trkpt lat="46.99488" lon="-1.03002">
        <ele>129</ele>
        <time>2023-11-04T19:44:43Z</time>
      </trkpt>
      <trkpt lat="46.99482" lon="-1.03027">
        <ele>130</ele>
        <time>2023-11-04T19:45:08Z</time>
      </trkpt>
      <trkpt lat="46.9947" lon="-1.0305">
        <ele>131</ele>
        <time>2023-11-04T19:45:34Z</time>
      </trkpt>
      <trkpt lat="46.9943" lon="-1.03104">
        <ele>132</ele>
        <time>2023-11-04T19:46:46Z</time>
      </trkpt>
      <trkpt lat="46.99404" lon="-1.03144">
        <ele>133</ele>
        <time>2023-11-04T19:47:37Z</time>
      </trkpt>
      <trkpt lat="46.99375" lon="-1.03215">
        <ele>135</ele>
        <time>2023-11-04T19:48:52Z</time>
      </trkpt>
      <trkpt lat="46.99342" lon="-1.03283">
        <ele>137</ele>
        <time>2023-11-04T19:50:08Z</time>
      </trkpt>
      <trkpt lat="46.99312" lon="-1.03352">
        <ele>138</ele>
        <time>2023-11-04T19:51:23Z</time>
      </trkpt>
      <trkpt lat="46.99293" lon="-1.03353">
        <ele>138</ele>
        <time>2023-11-04T19:51:48Z</time>
      </trkpt>
      <trkpt lat="46.99257" lon="-1.03344">
        <ele>138</ele>
        <time>2023-11-04T19:52:37Z</time>
      </trkpt>
      <trkpt lat="46.9922" lon="-1.03342">
        <ele>138</ele>
        <time>2023-11-04T19:53:26Z</time>
      </trkpt>
      <trkpt lat="46.99183" lon="-1.03345">
        <ele>137</ele>
        <time>2023-11-04T19:54:16Z</time>
      </trkpt>
      <trkpt lat="46.99107" lon="-1.0334">
        <ele>137</ele>
        <time>2023-11-04T19:55:57Z</time>
      </trkpt>
      <trkpt lat="46.99089" lon="-1.03341">
        <ele>137</ele>
        <time>2023-11-04T19:56:21Z</time>
      </trkpt>
      <trkpt lat="46.99034" lon="-1.03355">
        <ele>136</ele>
        <time>2023-11-04T19:57:36Z</time>
      </trkpt>
      <trkpt lat="46.9898" lon="-1.03374">
        <ele>136</ele>
        <time>2023-11-04T19:58:50Z</time>
      </trkpt>
      <trkpt lat="46.98951" lon="-1.03407">
        <ele>137</ele>
        <time>2023-11-04T19:59:39Z</time>
      </trkpt>
      <trkpt lat="46.98852" lon="-1.03531">
        <ele>136</ele>
        <time>2023-11-04T20:02:32Z</time>
      </trkpt>
      <trkpt lat="46.98837" lon="-1.03544">
        <ele>136</ele>
        <time>2023-11-04T20:02:56Z</time>
      </trkpt>
      <trkpt lat="46.98791" lon="-1.03593">
        <ele>136</ele>
        <time>2023-11-04T20:04:12Z</time>
      </trkpt>
      <trkpt lat="46.98742" lon="-1.03632">
        <ele>135</ele>
        <time>2023-11-04T20:05:26Z</time>
      </trkpt>
      <trkpt lat="46.98688" lon="-1.03657">
        <ele>135</ele>
        <time>2023-11-04T20:06:42Z</time>
      </trkpt>
      <trkpt lat="46.98637" lon="-1.03694">
        <ele>134</ele>
        <time>2023-11-04T20:07:57Z</time>
      </trkpt>
      <trkpt lat="46.98608" lon="-1.03727">
        <ele>134</ele>
        <time>2023-11-04T20:08:46Z</time>
      </trkpt>
      <trkpt lat="46.98551" lon="-1.03833">
        <ele>131</ele>
        <time>2023-11-04T20:10:49Z</time>
      </trkpt>
      <trkpt lat="46.98538" lon="-1.03853">
        <ele>131</ele>
        <time>2023-11-04T20:11:14Z</time>
      </trkpt>
      <trkpt lat="46.98464" lon="-1.03936">
        <ele>131</ele>
        <time>2023-11-04T20:13:19Z</time>
      </trkpt>
      <trkpt lat="46.98438" lon="-1.03976">
        <ele>130</ele>
        <time>2023-11-04T20:14:09Z</time>
      </trkpt>
      <trkpt lat="46.98427" lon="-1.03999">
        <ele>129</ele>
        <time>2023-11-04T20:14:35Z</time>
      </trkpt>
      <trkpt lat="46.98395" lon="-1.04096">
        <ele>128</ele>
        <time>2023-11-04T20:16:13Z</time>
      </trkpt>
      <trkpt lat="46.98376" lon="-1.04144">
        <ele>128</ele>
        <time>2023-11-04T20:17:03Z</time>
      </trkpt>
      <trkpt lat="46.9835" lon="-1.04185">
        <ele>127</ele>
        <time>2023-11-04T20:17:54Z</time>
      </trkpt>
      <trkpt lat="46.98316" lon="-1.0425">
        <ele>126</ele>
        <time>2023-11-04T20:19:09Z</time>
      </trkpt>
      <trkpt lat="46.98286" lon="-1.04349">
        <ele>125</ele>
        <time>2023-11-04T20:20:47Z</time>
      </trkpt>
      <trkpt lat="46.98266" lon="-1.04397">
        <ele>124</ele>
        <time>2023-11-04T20:21:39Z</time>
      </trkpt>
      <trkpt lat="46.98212" lon="-1.0451">
        <ele>122</ele>
        <time>2023-11-04T20:23:44Z</time>
      </trkpt>
      <trkpt lat="46.98188" lon="-1.04553">
        <ele>122</ele>
        <time>2023-11-04T20:24:35Z</time>
      </trkpt>
      <trkpt lat="46.98174" lon="-1.04569">
        <ele>122</ele>
        <time>2023-11-04T20:24:59Z</time>
      </trkpt>
      <trkpt lat="46.9818" lon="-1.04594">
        <ele>122</ele>
        <time>2023-11-04T20:25:23Z</time>
      </trkpt>
      <trkpt lat="46.98236" lon="-1.04703">
        <ele>120</ele>
        <time>2023-11-04T20:27:27Z</time>
      </trkpt>
      <trkpt lat="46.98327" lon="-1.04844">
        <ele>118</ele>
        <time>2023-11-04T20:30:24Z</time>
      </trkpt>
      <trkpt lat="46.98351" lon="-1.04885">
        <ele>118</ele>
        <time>2023-11-04T20:31:13Z</time>
      </trkpt>
      <trkpt lat="46.98405" lon="-1.04993">
        <ele>116</ele>
        <time>2023-11-04T20:33:15Z</time>
      </trkpt>
      <trkpt lat="46.98422" lon="-1.05002">
        <ele>115</ele>
        <time>2023-11-04T20:33:39Z</time>
      </trkpt>
      <trkpt lat="46.9844" lon="-1.04995">
        <ele>115</ele>
        <time>2023-11-04T20:34:04Z</time>
      </trkpt>
      <trkpt lat="46.98476" lon="-1.04974">
        <ele>115</ele>
        <time>2023-11-04T20:34:55Z</time>
      </trkpt>
      <trkpt lat="46.98556" lon="-1.04898">
        <ele>112</ele>
        <time>2023-11-04T20:37:03Z</time>
      </trkpt>
      <trkpt lat="46.9863" lon="-1.04818">
        <ele>110</ele>
        <time>2023-11-04T20:39:05Z</time>
      </trkpt>
      <trkpt lat="46.98678" lon="-1.04778">
        <ele>110</ele>
        <time>2023-11-04T20:40:19Z</time>
      </trkpt>
      <trkpt lat="46.98695" lon="-1.04767">
        <ele>109</ele>
        <time>2023-11-04T20:40:44Z</time>
      </trkpt>
      <trkpt lat="46.9873" lon="-1.04747">
        <ele>108</ele>
        <time>2023-11-04T20:41:34Z</time>
      </trkpt>
      <trkpt lat="46.98784" lon="-1.04728">
        <ele>108</ele>
        <time>2023-11-04T20:42:48Z</time>
      </trkpt>
      <trkpt lat="46.98802" lon="-1.04727">
        <ele>108</ele>
        <time>2023-11-04T20:43:12Z</time>
      </trkpt>
      <trkpt lat="46.98839" lon="-1.04733">
        <ele>109</ele>
        <time>2023-11-04T20:44:02Z</time>
      </trkpt>
      <trkpt lat="46.98876" lon="-1.04732">
        <ele>111</ele>
        <time>2023-11-04T20:44:51Z</time>
      </trkpt>
      <trkpt lat="46.98894" lon="-1.04725">
        <ele>112</ele>
        <time>2023-11-04T20:45:16Z</time>
      </trkpt>
      <trkpt lat="46.98911" lon="-1.04713">
        <ele>113</ele>
        <time>2023-11-04T20:45:41Z</time>
      </trkpt>
      <trkpt lat="46.98922" lon="-1.04691">
        <ele>114</ele>
        <time>2023-11-04T20:46:06Z</time>
      </trkpt>
      <trkpt lat="46.9893" lon="-1.04666">
        <ele>116</ele>
        <time>2023-11-04T20:46:31Z</time>
      </trkpt>
      <trkpt lat="46.9894" lon="-1.04614">
        <ele>119</ele>
        <time>2023-11-04T20:47:20Z</time>
      </trkpt>
      <trkpt lat="46.98952" lon="-1.04592">
        <ele>121</ele>
        <time>2023-11-04T20:47:46Z</time>
      </trkpt>
      <trkpt lat="46.98955" lon="-1.04565">
        <ele>121</ele>
        <time>2023-11-04T20:48:11Z</time>
      </trkpt>
      <trkpt lat="46.9897" lon="-1.04486">
        <ele>123</ele>
        <time>2023-11-04T20:49:25Z</time>
      </trkpt>
      <trkpt lat="46.98986" lon="-1.04438">
        <ele>125</ele>
        <time>2023-11-04T20:50:14Z</time>
      </trkpt>
      <trkpt lat="46.99001" lon="-1.04422">
        <ele>126</ele>
        <time>2023-11-04T20:50:39Z</time>
      </trkpt>
      <trkpt lat="46.99019" lon="-1.04413">
        <ele>127</ele>
        <time>2023-11-04T20:51:04Z</time>
      </trkpt>
      <trkpt lat="46.99038" lon="-1.04409">
        <ele>129</ele>
        <time>2023-11-04T20:51:30Z</time>
      </trkpt>
      <trkpt lat="46.99056" lon="-1.04414">
        <ele>130</ele>
        <time>2023-11-04T20:51:54Z</time>
      </trkpt>
      <trkpt lat="46.99073" lon="-1.04423">
        <ele>131</ele>
        <time>2023-11-04T20:52:18Z</time>
      </trkpt>
      <trkpt lat="46.99106" lon="-1.04447">
        <ele>133</ele>
        <time>2023-11-04T20:53:08Z</time>
      </trkpt>
      <trkpt lat="46.99125" lon="-1.04451">
        <ele>133</ele>
        <time>2023-11-04T20:53:33Z</time>
      </trkpt>
      <trkpt lat="46.99143" lon="-1.04451">
        <ele>133</ele>
        <time>2023-11-04T20:53:57Z</time>
      </trkpt>
      <trkpt lat="46.99161" lon="-1.04443">
        <ele>134</ele>
        <time>2023-11-04T20:54:22Z</time>
      </trkpt>
      <trkpt lat="46.99178" lon="-1.04452">
        <ele>134</ele>
        <time>2023-11-04T20:54:46Z</time>
      </trkpt>
      <trkpt lat="46.99193" lon="-1.04401">
        <ele>134</ele>
        <time>2023-11-04T20:55:37Z</time>
      </trkpt>
      <trkpt lat="46.99246" lon="-1.04379">
        <ele>133</ele>
        <time>2023-11-04T20:56:50Z</time>
      </trkpt>
      <trkpt lat="46.9926" lon="-1.0436">
        <ele>134</ele>
        <time>2023-11-04T20:57:16Z</time>
      </trkpt>
      <trkpt lat="46.99266" lon="-1.04334">
        <ele>134</ele>
        <time>2023-11-04T20:57:41Z</time>
      </trkpt>
      <trkpt lat="46.9929" lon="-1.0426">
        <ele>134</ele>
        <time>2023-11-04T20:58:55Z</time>
      </trkpt>
      <trkpt lat="46.99262" lon="-1.04278">
        <ele>134</ele>
        <time>2023-11-04T20:59:36Z</time>
      </trkpt>
      <trkpt lat="46.9926" lon="-1.04331">
        <ele>134</ele>
        <time>2023-11-04T21:00:25Z</time>
      </trkpt>
      <trkpt lat="46.99262" lon="-1.04358">
        <ele>134</ele>
        <time>2023-11-04T21:00:49Z</time>
      </trkpt>
      <trkpt lat="46.99212" lon="-1.04393">
        <ele>133</ele>
        <time>2023-11-04T21:02:03Z</time>
      </trkpt>
      <trkpt lat="46.99213" lon="-1.04421">
        <ele>133</ele>
        <time>2023-11-04T21:02:29Z</time>
      </trkpt>
      <trkpt lat="46.99195" lon="-1.04425">
        <ele>134</ele>
        <time>2023-11-04T21:02:53Z</time>
      </trkpt>
      <trkpt lat="46.99186" lon="-1.04448">
        <ele>134</ele>
        <time>2023-11-04T21:03:17Z</time>
      </trkpt>
      <trkpt lat="46.99194" lon="-1.04472">
        <ele>133</ele>
        <time>2023-11-04T21:03:42Z</time>
      </trkpt>
      <trkpt lat="46.99208" lon="-1.04491">
        <ele>133</ele>
        <time>2023-11-04T21:04:07Z</time>
      </trkpt>
      <trkpt lat="46.99244" lon="-1.04553">
        <ele>132</ele>
        <time>2023-11-04T21:05:21Z</time>
      </trkpt>
      <trkpt lat="46.99261" lon="-1.04565">
        <ele>131</ele>
        <time>2023-11-04T21:05:46Z</time>
      </trkpt>
      <trkpt lat="46.9928" lon="-1.04561">
        <ele>131</ele>
        <time>2023-11-04T21:06:12Z</time>
      </trkpt>
      <trkpt lat="46.9928" lon="-1.04588">
        <ele>131</ele>
        <time>2023-11-04T21:06:36Z</time>
      </trkpt>
      <trkpt lat="46.99262" lon="-1.04599">
        <ele>131</ele>
        <time>2023-11-04T21:07:02Z</time>
      </trkpt>
      <trkpt lat="46.99262" lon="-1.04733">
        <ele>127</ele>
        <time>2023-11-04T21:09:04Z</time>
      </trkpt>
      <trkpt lat="46.99258" lon="-1.04788">
        <ele>125</ele>
        <time>2023-11-04T21:09:55Z</time>
      </trkpt>
      <trkpt lat="46.99258" lon="-1.04869">
        <ele>122</ele>
        <time>2023-11-04T21:11:09Z</time>
      </trkpt>
      <trkpt lat="46.99274" lon="-1.04881">
        <ele>122</ele>
        <time>2023-11-04T21:11:33Z</time>
      </trkpt>
      <trkpt lat="46.99309" lon="-1.04866">
        <ele>122</ele>
        <time>2023-11-04T21:12:21Z</time>
      </trkpt>
      <trkpt lat="46.99327" lon="-1.04865">
        <ele>123</ele>
        <time>2023-11-04T21:12:45Z</time>
      </trkpt>
      <trkpt lat="46.99364" lon="-1.04858">
        <ele>124</ele>
        <time>2023-11-04T21:13:35Z</time>
      </trkpt>
      <trkpt lat="46.99382" lon="-1.04862">
        <ele>125</ele>
        <time>2023-11-04T21:13:59Z</time>
      </trkpt>
      <trkpt lat="46.99401" lon="-1.0486">
        <ele>125</ele>
        <time>2023-11-04T21:14:25Z</time>
      </trkpt>
      <trkpt lat="46.99438" lon="-1.04864">
        <ele>126</ele>
        <time>2023-11-04T21:15:14Z</time>
      </trkpt>
      <trkpt lat="46.99456" lon="-1.0487">
        <ele>125</ele>
        <time>2023-11-04T21:15:39Z</time>
      </trkpt>
      <trkpt lat="46.99473" lon="-1.04881">
        <ele>124</ele>
        <time>2023-11-04T21:16:04Z</time>
      </trkpt>
      <trkpt lat="46.99527" lon="-1.049">
        <ele>123</ele>
        <time>2023-11-04T21:17:18Z</time>
      </trkpt>
      <trkpt lat="46.99542" lon="-1.04915">
        <ele>123</ele>
        <time>2023-11-04T21:17:42Z</time>
      </trkpt>
      <trkpt lat="46.99561" lon="-1.04921">
        <ele>123</ele>
        <time>2023-11-04T21:18:08Z</time>
      </trkpt>
      <trkpt lat="46.9958" lon="-1.0492">
        <ele>124</ele>
        <time>2023-11-04T21:18:33Z</time>
      </trkpt>
      <trkpt lat="46.99598" lon="-1.04916">
        <ele>124</ele>
        <time>2023-11-04T21:18:58Z</time>
      </trkpt>
      <trkpt lat="46.99636" lon="-1.04916">
        <ele>123</ele>
        <time>2023-11-04T21:19:48Z</time>
      </trkpt>
      <trkpt lat="46.99672" lon="-1.04923">
        <ele>122</ele>
        <time>2023-11-04T21:20:37Z</time>
      </trkpt>
      <trkpt lat="46.99691" lon="-1.04921">
        <ele>121</ele>
        <time>2023-11-04T21:21:02Z</time>
      </trkpt>
      <trkpt lat="46.99727" lon="-1.04926">
        <ele>120</ele>
        <time>2023-11-04T21:21:50Z</time>
      </trkpt>
      <trkpt lat="46.99742" lon="-1.04945">
        <ele>120</ele>
        <time>2023-11-04T21:22:17Z</time>
      </trkpt>
      <trkpt lat="46.99754" lon="-1.04966">
        <ele>119</ele>
        <time>2023-11-04T21:22:42Z</time>
      </trkpt>
      <trkpt lat="46.99754" lon="-1.05046">
        <ele>117</ele>
        <time>2023-11-04T21:23:55Z</time>
      </trkpt>
      <trkpt lat="46.99761" lon="-1.05099">
        <ele>116</ele>
        <time>2023-11-04T21:24:44Z</time>
      </trkpt>
      <trkpt lat="46.99762" lon="-1.05126">
        <ele>116</ele>
        <time>2023-11-04T21:25:08Z</time>
      </trkpt>
      <trkpt lat="46.99784" lon="-1.05203">
        <ele>115</ele>
        <time>2023-11-04T21:26:24Z</time>
      </trkpt>
      <trkpt lat="46.99801" lon="-1.0528">
        <ele>113</ele>
        <time>2023-11-04T21:27:38Z</time>
      </trkpt>
      <trkpt lat="46.99806" lon="-1.05307">
        <ele>113</ele>
        <time>2023-11-04T21:28:03Z</time>
      </trkpt>
      <trkpt lat="46.99814" lon="-1.05387">
        <ele>110</ele>
        <time>2023-11-04T21:29:17Z</time>
      </trkpt>
      <trkpt lat="46.99813" lon="-1.05442">
        <ele>109</ele>
        <time>2023-11-04T21:30:07Z</time>
      </trkpt>
      <trkpt lat="46.99805" lon="-1.05496">
        <ele>108</ele>
        <time>2023-11-04T21:30:57Z</time>
      </trkpt>
      <trkpt lat="46.99781" lon="-1.056">
        <ele>108</ele>
        <time>2023-11-04T21:32:37Z</time>
      </trkpt>
      <trkpt lat="46.9976" lon="-1.05674">
        <ele>109</ele>
        <time>2023-11-04T21:33:50Z</time>
      </trkpt>
      <trkpt lat="46.9975" lon="-1.05727">
        <ele>109</ele>
        <time>2023-11-04T21:34:40Z</time>
      </trkpt>
      <trkpt lat="46.99757" lon="-1.05752">
        <ele>109</ele>
        <time>2023-11-04T21:35:05Z</time>
      </trkpt>
      <trkpt lat="46.99769" lon="-1.05773">
        <ele>108</ele>
        <time>2023-11-04T21:35:30Z</time>
      </trkpt>
      <trkpt lat="46.99789" lon="-1.05819">
        <ele>107</ele>
        <time>2023-11-04T21:36:20Z</time>
      </trkpt>
      <trkpt lat="46.9987" lon="-1.06034">
        <ele>104</ele>
        <time>2023-11-04T21:40:03Z</time>
      </trkpt>
      <trkpt lat="46.99882" lon="-1.06056">
        <ele>103</ele>
        <time>2023-11-04T21:40:29Z</time>
      </trkpt>
      <trkpt lat="46.9991" lon="-1.06093">
        <ele>102</ele>
        <time>2023-11-04T21:41:19Z</time>
      </trkpt>
      <trkpt lat="46.99921" lon="-1.06115">
        <ele>102</ele>
        <time>2023-11-04T21:41:44Z</time>
      </trkpt>
      <trkpt lat="46.99955" lon="-1.06212">
        <ele>101</ele>
        <time>2023-11-04T21:43:23Z</time>
      </trkpt>
      <trkpt lat="46.99989" lon="-1.06275">
        <ele>99</ele>
        <time>2023-11-04T21:44:36Z</time>
      </trkpt>
      <trkpt lat="46.99998" lon="-1.063">
        <ele>98</ele>
        <time>2023-11-04T21:45:02Z</time>
      </trkpt>
      <trkpt lat="47.00003" lon="-1.06354">
        <ele>97</ele>
        <time>2023-11-04T21:45:52Z</time>
      </trkpt>
      <trkpt lat="47.00006" lon="-1.06437">
        <ele>95</ele>
        <time>2023-11-04T21:47:07Z</time>
      </trkpt>
      <trkpt lat="46.99972" lon="-1.06561">
        <ele>92</ele>
        <time>2023-11-04T21:49:09Z</time>
      </trkpt>
      <trkpt lat="46.99921" lon="-1.06641">
        <ele>90</ele>
        <time>2023-11-04T21:50:49Z</time>
      </trkpt>
      <trkpt lat="46.99903" lon="-1.06688">
        <ele>89</ele>
        <time>2023-11-04T21:51:38Z</time>
      </trkpt>
      <trkpt lat="46.99896" lon="-1.06714">
        <ele>88</ele>
        <time>2023-11-04T21:52:03Z</time>
      </trkpt>
      <trkpt lat="46.9989" lon="-1.06795">
        <ele>87</ele>
        <time>2023-11-04T21:53:17Z</time>
      </trkpt>
      <trkpt lat="46.99885" lon="-1.06823">
        <ele>87</ele>
        <time>2023-11-04T21:53:44Z</time>
      </trkpt>
      <trkpt lat="46.99876" lon="-1.06846">
        <ele>87</ele>
        <time>2023-11-04T21:54:08Z</time>
      </trkpt>
      <trkpt lat="46.99859" lon="-1.06857">
        <ele>88</ele>
        <time>2023-11-04T21:54:32Z</time>
      </trkpt>
      <trkpt lat="46.99846" lon="-1.06877">
        <ele>88</ele>
        <time>2023-11-04T21:54:58Z</time>
      </trkpt>
      <trkpt lat="46.99828" lon="-1.06879">
        <ele>88</ele>
        <time>2023-11-04T21:55:22Z</time>
      </trkpt>
      <trkpt lat="46.9981" lon="-1.06875">
        <ele>87</ele>
        <time>2023-11-04T21:55:46Z</time>
      </trkpt>
      <trkpt lat="46.99775" lon="-1.06862">
        <ele>85</ele>
        <time>2023-11-04T21:56:34Z</time>
      </trkpt>
      <trkpt lat="46.99759" lon="-1.06877">
        <ele>84</ele>
        <time>2023-11-04T21:56:59Z</time>
      </trkpt>
      <trkpt lat="46.99762" lon="-1.06958">
        <ele>83</ele>
        <time>2023-11-04T21:58:13Z</time>
      </trkpt>
      <trkpt lat="46.9977" lon="-1.06983">
        <ele>83</ele>
        <time>2023-11-04T21:58:38Z</time>
      </trkpt>
      <trkpt lat="46.99784" lon="-1.07">
        <ele>83</ele>
        <time>2023-11-04T21:59:03Z</time>
      </trkpt>
      <trkpt lat="46.99857" lon="-1.07023">
        <ele>81</ele>
        <time>2023-11-04T22:00:42Z</time>
      </trkpt>
      <trkpt lat="46.99875" lon="-1.07033">
        <ele>80</ele>
        <time>2023-11-04T22:01:08Z</time>
      </trkpt>
      <trkpt lat="46.9989" lon="-1.07049">
        <ele>78</ele>
        <time>2023-11-04T22:01:33Z</time>
      </trkpt>
      <trkpt lat="46.99901" lon="-1.07072">
        <ele>77</ele>
        <time>2023-11-04T22:01:58Z</time>
      </trkpt>
      <trkpt lat="46.99912" lon="-1.07124">
        <ele>75</ele>
        <time>2023-11-04T22:02:48Z</time>
      </trkpt>
      <trkpt lat="46.99923" lon="-1.07259">
        <ele>71</ele>
        <time>2023-11-04T22:04:52Z</time>
      </trkpt>
      <trkpt lat="46.99924" lon="-1.07312">
        <ele>69</ele>
        <time>2023-11-04T22:05:40Z</time>
      </trkpt>
      <trkpt lat="46.9992" lon="-1.07339">
        <ele>68</ele>
        <time>2023-11-04T22:06:05Z</time>
      </trkpt>
      <trkpt lat="46.99913" lon="-1.07364">
        <ele>66</ele>
        <time>2023-11-04T22:06:30Z</time>
      </trkpt>
      <trkpt lat="46.99903" lon="-1.07387">
        <ele>65</ele>
        <time>2023-11-04T22:06:54Z</time>
      </trkpt>
      <trkpt lat="46.99906" lon="-1.07414">
        <ele>63</ele>
        <time>2023-11-04T22:07:19Z</time>
      </trkpt>
      <trkpt lat="46.99923" lon="-1.07423">
        <ele>63</ele>
        <time>2023-11-04T22:07:43Z</time>
      </trkpt>
      <trkpt lat="46.9996" lon="-1.07425">
        <ele>64</ele>
        <time>2023-11-04T22:08:33Z</time>
      </trkpt>
      <trkpt lat="46.99997" lon="-1.0741">
        <ele>64</ele>
        <time>2023-11-04T22:09:24Z</time>
      </trkpt>
      <trkpt lat="47.00063" lon="-1.07361">
        <ele>71</ele>
        <time>2023-11-04T22:11:03Z</time>
      </trkpt>
      <trkpt lat="47.00114" lon="-1.07331">
        <ele>75</ele>
        <time>2023-11-04T22:12:16Z</time>
      </trkpt>
      <trkpt lat="47.00186" lon="-1.07303">
        <ele>79</ele>
        <time>2023-11-04T22:13:56Z</time>
      </trkpt>
      <trkpt lat="47.00202" lon="-1.07291">
        <ele>80</ele>
        <time>2023-11-04T22:14:20Z</time>
      </trkpt>
      <trkpt lat="47.00256" lon="-1.07273">
        <ele>82</ele>
        <time>2023-11-04T22:15:33Z</time>
      </trkpt>
      <trkpt lat="47.00293" lon="-1.07272">
        <ele>81</ele>
        <time>2023-11-04T22:16:23Z</time>
      </trkpt>
      <trkpt lat="47.0033" lon="-1.07266">
        <ele>81</ele>
        <time>2023-11-04T22:17:13Z</time>
      </trkpt>
      <trkpt lat="47.00386" lon="-1.0726">
        <ele>81</ele>
        <time>2023-11-04T22:18:27Z</time>
      </trkpt>
      <trkpt lat="47.00405" lon="-1.0726">
        <ele>81</ele>
        <time>2023-11-04T22:18:53Z</time>
      </trkpt>
      <trkpt lat="47.00424" lon="-1.07256">
        <ele>81</ele>
        <time>2023-11-04T22:19:18Z</time>
      </trkpt>
      <trkpt lat="47.00457" lon="-1.07229">
        <ele>83</ele>
        <time>2023-11-04T22:20:09Z</time>
      </trkpt>
      <trkpt lat="47.00499" lon="-1.07175">
        <ele>86</ele>
        <time>2023-11-04T22:21:23Z</time>
      </trkpt>
      <trkpt lat="47.00573" lon="-1.07096">
        <ele>88</ele>
        <time>2023-11-04T22:23:26Z</time>
      </trkpt>
      <trkpt lat="47.00631" lon="-1.07028">
        <ele>90</ele>
        <time>2023-11-04T22:25:05Z</time>
      </trkpt>
      <trkpt lat="47.00657" lon="-1.0699">
        <ele>90</ele>
        <time>2023-11-04T22:25:54Z</time>
      </trkpt>
      <trkpt lat="47.00668" lon="-1.07011">
        <ele>90</ele>
        <time>2023-11-04T22:26:18Z</time>
      </trkpt>
      <trkpt lat="47.00672" lon="-1.07119">
        <ele>88</ele>
        <time>2023-11-04T22:27:56Z</time>
      </trkpt>
      <trkpt lat="47.00702" lon="-1.07274">
        <ele>87</ele>
        <time>2023-11-04T22:30:23Z</time>
      </trkpt>
      <trkpt lat="47.00739" lon="-1.0737">
        <ele>88</ele>
        <time>2023-11-04T22:32:03Z</time>
      </trkpt>
      <trkpt lat="47.00761" lon="-1.07415">
        <ele>87</ele>
        <time>2023-11-04T22:32:53Z</time>
      </trkpt>
      <trkpt lat="47.00805" lon="-1.07536">
        <ele>83</ele>
        <time>2023-11-04T22:34:58Z</time>
      </trkpt>
      <trkpt lat="47.0082" lon="-1.07585">
        <ele>84</ele>
        <time>2023-11-04T22:35:47Z</time>
      </trkpt>
      <trkpt lat="47.00831" lon="-1.07606">
        <ele>84</ele>
        <time>2023-11-04T22:36:11Z</time>
      </trkpt>
      <trkpt lat="47.00847" lon="-1.07618">
        <ele>81</ele>
        <time>2023-11-04T22:36:35Z</time>
      </trkpt>
      <trkpt lat="47.00876" lon="-1.07653">
        <ele>78</ele>
        <time>2023-11-04T22:37:25Z</time>
      </trkpt>
      <trkpt lat="47.00896" lon="-1.07699">
        <ele>79</ele>
        <time>2023-11-04T22:38:15Z</time>
      </trkpt>
      <trkpt lat="47.00923" lon="-1.07736">
        <ele>80</ele>
        <time>2023-11-04T22:39:04Z</time>
      </trkpt>
      <trkpt lat="47.00934" lon="-1.07756">
        <ele>80</ele>
        <time>2023-11-04T22:39:28Z</time>
      </trkpt>
      <trkpt lat="47.00972" lon="-1.07882">
        <ele>75</ele>
        <time>2023-11-04T22:41:33Z</time>
      </trkpt>
      <trkpt lat="47.0099" lon="-1.07959">
        <ele>69</ele>
        <time>2023-11-04T22:42:47Z</time>
      </trkpt>
      <trkpt lat="47.01013" lon="-1.08">
        <ele>63</ele>
        <time>2023-11-04T22:43:35Z</time>
      </trkpt>
      <trkpt lat="47.0102" lon="-1.08027">
        <ele>60</ele>
        <time>2023-11-04T22:44:02Z</time>
      </trkpt>
      <trkpt lat="47.01022" lon="-1.0808">
        <ele>56</ele>
        <time>2023-11-04T22:44:50Z</time>
      </trkpt>
      <trkpt lat="47.0101" lon="-1.0816">
        <ele>59</ele>
        <time>2023-11-04T22:46:05Z</time>
      </trkpt>
      <trkpt lat="47.0103" lon="-1.08204">
        <ele>59</ele>
        <time>2023-11-04T22:46:53Z</time>
      </trkpt>
      <trkpt lat="47.01044" lon="-1.08223">
        <ele>59</ele>
        <time>2023-11-04T22:47:18Z</time>
      </trkpt>
      <trkpt lat="47.01049" lon="-1.08277">
        <ele>61</ele>
        <time>2023-11-04T22:48:08Z</time>
      </trkpt>
      <trkpt lat="47.01068" lon="-1.08354">
        <ele>65</ele>
        <time>2023-11-04T22:49:22Z</time>
      </trkpt>
      <trkpt lat="47.01076" lon="-1.08408">
        <ele>69</ele>
        <time>2023-11-04T22:50:12Z</time>
      </trkpt>
      <trkpt lat="47.01072" lon="-1.08434">
        <ele>71</ele>
        <time>2023-11-04T22:50:37Z</time>
      </trkpt>
      <trkpt lat="47.01141" lon="-1.08345">
        <ele>60</ele>
        <time>2023-11-04T22:52:39Z</time>
      </trkpt>
      <trkpt lat="47.01156" lon="-1.08329">
        <ele>59</ele>
        <time>2023-11-04T22:53:04Z</time>
      </trkpt>
      <trkpt lat="47.0119" lon="-1.08308">
        <ele>56</ele>
        <time>2023-11-04T22:53:53Z</time>
      </trkpt>
      <trkpt lat="47.01226" lon="-1.08301">
        <ele>54</ele>
        <time>2023-11-04T22:54:42Z</time>
      </trkpt>
      <trkpt lat="47.01243" lon="-1.08312">
        <ele>53</ele>
        <time>2023-11-04T22:55:07Z</time>
      </trkpt>
      <trkpt lat="47.01244" lon="-1.0834">
        <ele>54</ele>
        <time>2023-11-04T22:55:32Z</time>
      </trkpt>
      <trkpt lat="47.01257" lon="-1.08361">
        <ele>56</ele>
        <time>2023-11-04T22:55:58Z</time>
      </trkpt>
      <trkpt lat="47.01275" lon="-1.08364">
        <ele>59</ele>
        <time>2023-11-04T22:56:22Z</time>
      </trkpt>
      <trkpt lat="47.0129" lon="-1.08349">
        <ele>60</ele>
        <time>2023-11-04T22:56:46Z</time>
      </trkpt>
      <trkpt lat="47.01307" lon="-1.08337">
        <ele>62</ele>
        <time>2023-11-04T22:57:11Z</time>
      </trkpt>
      <trkpt lat="47.0132" lon="-1.08317">
        <ele>62</ele>
        <time>2023-11-04T22:57:37Z</time>
      </trkpt>
      <trkpt lat="47.01335" lon="-1.08301">
        <ele>62</ele>
        <time>2023-11-04T22:58:01Z</time>
      </trkpt>
      <trkpt lat="47.01347" lon="-1.08281">
        <ele>62</ele>
        <time>2023-11-04T22:58:26Z</time>
      </trkpt>
      <trkpt lat="47.01359" lon="-1.08229">
        <ele>61</ele>
        <time>2023-11-04T22:59:16Z</time>
      </trkpt>
      <trkpt lat="47.0136" lon="-1.08176">
        <ele>61</ele>
        <time>2023-11-04T23:00:04Z</time>
      </trkpt>
      <trkpt lat="47.01347" lon="-1.08124">
        <ele>61</ele>
        <time>2023-11-04T23:00:54Z</time>
      </trkpt>
      <trkpt lat="47.01283" lon="-1.08024">
        <ele>61</ele>
        <time>2023-11-04T23:02:59Z</time>
      </trkpt>
      <trkpt lat="47.01248" lon="-1.07959">
        <ele>61</ele>
        <time>2023-11-04T23:04:14Z</time>
      </trkpt>
      <trkpt lat="47.01234" lon="-1.0794">
        <ele>61</ele>
        <time>2023-11-04T23:04:40Z</time>
      </trkpt>
      <trkpt lat="47.01223" lon="-1.07919">
        <ele>61</ele>
        <time>2023-11-04T23:05:04Z</time>
      </trkpt>
      <trkpt lat="47.01215" lon="-1.07894">
        <ele>62</ele>
        <time>2023-11-04T23:05:29Z</time>
      </trkpt>
      <trkpt lat="47.01169" lon="-1.07848">
        <ele>58</ele>
        <time>2023-11-04T23:06:43Z</time>
      </trkpt>
      <trkpt lat="47.0116" lon="-1.07824">
        <ele>59</ele>
        <time>2023-11-04T23:07:08Z</time>
      </trkpt>
      <trkpt lat="47.01154" lon="-1.07798">
        <ele>59</ele>
        <time>2023-11-04T23:07:33Z</time>
      </trkpt>
      <trkpt lat="47.01151" lon="-1.07771">
        <ele>60</ele>
        <time>2023-11-04T23:07:58Z</time>
      </trkpt>
      <trkpt lat="47.01156" lon="-1.07745">
        <ele>62</ele>
        <time>2023-11-04T23:08:23Z</time>
      </trkpt>
      <trkpt lat="47.01168" lon="-1.07722">
        <ele>64</ele>
        <time>2023-11-04T23:08:49Z</time>
      </trkpt>
      <trkpt lat="47.01172" lon="-1.07694">
        <ele>66</ele>
        <time>2023-11-04T23:09:15Z</time>
      </trkpt>
      <trkpt lat="47.01141" lon="-1.07667">
        <ele>63</ele>
        <time>2023-11-04T23:10:03Z</time>
      </trkpt>
      <trkpt lat="47.01134" lon="-1.07614">
        <ele>64</ele>
        <time>2023-11-04T23:10:52Z</time>
      </trkpt>
      <trkpt lat="47.01134" lon="-1.07588">
        <ele>65</ele>
        <time>2023-11-04T23:11:16Z</time>
      </trkpt>
      <trkpt lat="47.01142" lon="-1.07506">
        <ele>68</ele>
        <time>2023-11-04T23:12:31Z</time>
      </trkpt>
      <trkpt lat="47.01131" lon="-1.07484">
        <ele>66</ele>
        <time>2023-11-04T23:12:56Z</time>
      </trkpt>
      <trkpt lat="47.01112" lon="-1.07406">
        <ele>62</ele>
        <time>2023-11-04T23:14:12Z</time>
      </trkpt>
      <trkpt lat="47.01092" lon="-1.07303">
        <ele>58</ele>
        <time>2023-11-04T23:15:49Z</time>
      </trkpt>
      <trkpt lat="47.01091" lon="-1.07275">
        <ele>57</ele>
        <time>2023-11-04T23:16:15Z</time>
      </trkpt>
      <trkpt lat="47.01124" lon="-1.0721">
        <ele>60</ele>
        <time>2023-11-04T23:17:28Z</time>
      </trkpt>
      <trkpt lat="47.01164" lon="-1.07117">
        <ele>60</ele>
        <time>2023-11-04T23:19:08Z</time>
      </trkpt>
      <trkpt lat="47.01215" lon="-1.07037">
        <ele>65</ele>
        <time>2023-11-04T23:20:48Z</time>
      </trkpt>
      <trkpt lat="47.01229" lon="-1.0702">
        <ele>65</ele>
        <time>2023-11-04T23:21:12Z</time>
      </trkpt>
      <trkpt lat="47.01274" lon="-1.06934">
        <ele>64</ele>
        <time>2023-11-04T23:22:51Z</time>
      </trkpt>
      <trkpt lat="47.01292" lon="-1.06885">
        <ele>65</ele>
        <time>2023-11-04T23:23:41Z</time>
      </trkpt>
      <trkpt lat="47.01303" lon="-1.06862">
        <ele>65</ele>
        <time>2023-11-04T23:24:07Z</time>
      </trkpt>
      <trkpt lat="47.01324" lon="-1.06787">
        <ele>65</ele>
        <time>2023-11-04T23:25:21Z</time>
      </trkpt>
      <trkpt lat="47.01328" lon="-1.06707">
        <ele>62</ele>
        <time>2023-11-04T23:26:34Z</time>
      </trkpt>
      <trkpt lat="47.01318" lon="-1.06684">
        <ele>60</ele>
        <time>2023-11-04T23:26:59Z</time>
      </trkpt>
      <trkpt lat="47.01327" lon="-1.06661">
        <ele>60</ele>
        <time>2023-11-04T23:27:23Z</time>
      </trkpt>
      <trkpt lat="47.01329" lon="-1.06715">
        <ele>62</ele>
        <time>2023-11-04T23:28:12Z</time>
      </trkpt>
      <trkpt lat="47.01326" lon="-1.06741">
        <ele>63</ele>
        <time>2023-11-04T23:28:36Z</time>
      </trkpt>
      <trkpt lat="47.01335" lon="-1.06718">
        <ele>63</ele>
        <time>2023-11-04T23:29:00Z</time>
      </trkpt>
      <trkpt lat="47.01349" lon="-1.06668">
        <ele>64</ele>
        <time>2023-11-04T23:29:49Z</time>
      </trkpt>
      <trkpt lat="47.01347" lon="-1.0664">
        <ele>64</ele>
        <time>2023-11-04T23:30:15Z</time>
      </trkpt>
      <trkpt lat="47.01365" lon="-1.06592">
        <ele>70</ele>
        <time>2023-11-04T23:31:05Z</time>
      </trkpt>
      <trkpt lat="47.01378" lon="-1.06573">
        <ele>74</ele>
        <time>2023-11-04T23:31:29Z</time>
      </trkpt>
      <trkpt lat="47.01396" lon="-1.06576">
        <ele>77</ele>
        <time>2023-11-04T23:31:53Z</time>
      </trkpt>
      <trkpt lat="47.01381" lon="-1.06561">
        <ele>75</ele>
        <time>2023-11-04T23:32:18Z</time>
      </trkpt>
      <trkpt lat="47.01344" lon="-1.06563">
        <ele>69</ele>
        <time>2023-11-04T23:33:07Z</time>
      </trkpt>
      <trkpt lat="47.01329" lon="-1.06548">
        <ele>69</ele>
        <time>2023-11-04T23:33:31Z</time>
      </trkpt>
      <trkpt lat="47.01328" lon="-1.0652">
        <ele>74</ele>
        <time>2023-11-04T23:33:57Z</time>
      </trkpt>
      <trkpt lat="47.01318" lon="-1.06497">
        <ele>76</ele>
        <time>2023-11-04T23:34:22Z</time>
      </trkpt>
      <trkpt lat="47.01302" lon="-1.06482">
        <ele>75</ele>
        <time>2023-11-04T23:34:47Z</time>
      </trkpt>
      <trkpt lat="47.01248" lon="-1.06403">
        <ele>79</ele>
        <time>2023-11-04T23:36:29Z</time>
      </trkpt>
      <trkpt lat="47.01244" lon="-1.06377">
        <ele>82</ele>
        <time>2023-11-04T23:36:53Z</time>
      </trkpt>
      <trkpt lat="47.01259" lon="-1.0636">
        <ele>86</ele>
        <time>2023-11-04T23:37:18Z</time>
      </trkpt>
      <trkpt lat="47.01277" lon="-1.06359">
        <ele>87</ele>
        <time>2023-11-04T23:37:42Z</time>
      </trkpt>
      <trkpt lat="47.01293" lon="-1.06346">
        <ele>90</ele>
        <time>2023-11-04T23:38:07Z</time>
      </trkpt>
      <trkpt lat="47.01335" lon="-1.06292">
        <ele>98</ele>
        <time>2023-11-04T23:39:21Z</time>
      </trkpt>
      <trkpt lat="47.01375" lon="-1.06234">
        <ele>102</ele>
        <time>2023-11-04T23:40:36Z</time>
      </trkpt>
      <trkpt lat="47.01407" lon="-1.06205">
        <ele>103</ele>
        <time>2023-11-04T23:41:26Z</time>
      </trkpt>
      <trkpt lat="47.01458" lon="-1.06173">
        <ele>107</ele>
        <time>2023-11-04T23:42:41Z</time>
      </trkpt>
      <trkpt lat="47.01513" lon="-1.06166">
        <ele>111</ele>
        <time>2023-11-04T23:43:54Z</time>
      </trkpt>
      <trkpt lat="47.01548" lon="-1.0615">
        <ele>112</ele>
        <time>2023-11-04T23:44:43Z</time>
      </trkpt>
      <trkpt lat="47.01564" lon="-1.06136">
        <ele>113</ele>
        <time>2023-11-04T23:45:08Z</time>
      </trkpt>
      <trkpt lat="47.01571" lon="-1.06111">
        <ele>114</ele>
        <time>2023-11-04T23:45:33Z</time>
      </trkpt>
      <trkpt lat="47.01583" lon="-1.06091">
        <ele>115</ele>
        <time>2023-11-04T23:45:57Z</time>
      </trkpt>
      <trkpt lat="47.01598" lon="-1.06073">
        <ele>115</ele>
        <time>2023-11-04T23:46:23Z</time>
      </trkpt>
      <trkpt lat="47.01617" lon="-1.06069">
        <ele>114</ele>
        <time>2023-11-04T23:46:48Z</time>
      </trkpt>
      <trkpt lat="47.01633" lon="-1.06084">
        <ele>114</ele>
        <time>2023-11-04T23:47:14Z</time>
      </trkpt>
      <trkpt lat="47.01644" lon="-1.06106">
        <ele>113</ele>
        <time>2023-11-04T23:47:38Z</time>
      </trkpt>
      <trkpt lat="47.01663" lon="-1.06104">
        <ele>112</ele>
        <time>2023-11-04T23:48:04Z</time>
      </trkpt>
      <trkpt lat="47.01675" lon="-1.06083">
        <ele>113</ele>
        <time>2023-11-04T23:48:29Z</time>
      </trkpt>
      <trkpt lat="47.01691" lon="-1.0607">
        <ele>113</ele>
        <time>2023-11-04T23:48:53Z</time>
      </trkpt>
      <trkpt lat="47.01707" lon="-1.06083">
        <ele>113</ele>
        <time>2023-11-04T23:49:18Z</time>
      </trkpt>
      <trkpt lat="47.01722" lon="-1.06101">
        <ele>112</ele>
        <time>2023-11-04T23:49:43Z</time>
      </trkpt>
      <trkpt lat="47.01747" lon="-1.06141">
        <ele>111</ele>
        <time>2023-11-04T23:50:33Z</time>
      </trkpt>
      <trkpt lat="47.01754" lon="-1.06197">
        <ele>110</ele>
        <time>2023-11-04T23:51:25Z</time>
      </trkpt>
      <trkpt lat="47.01761" lon="-1.06222">
        <ele>110</ele>
        <time>2023-11-04T23:51:49Z</time>
      </trkpt>
      <trkpt lat="47.01761" lon="-1.06249">
        <ele>109</ele>
        <time>2023-11-04T23:52:14Z</time>
      </trkpt>
      <trkpt lat="47.01771" lon="-1.06302">
        <ele>109</ele>
        <time>2023-11-04T23:53:04Z</time>
      </trkpt>
      <trkpt lat="47.01786" lon="-1.06318">
        <ele>109</ele>
        <time>2023-11-04T23:53:29Z</time>
      </trkpt>
      <trkpt lat="47.01814" lon="-1.06389">
        <ele>109</ele>
        <time>2023-11-04T23:54:43Z</time>
      </trkpt>
      <trkpt lat="47.01816" lon="-1.06442">
        <ele>108</ele>
        <time>2023-11-04T23:55:31Z</time>
      </trkpt>
      <trkpt lat="47.01807" lon="-1.06466">
        <ele>108</ele>
        <time>2023-11-04T23:55:56Z</time>
      </trkpt>
      <trkpt lat="47.01797" lon="-1.06546">
        <ele>108</ele>
        <time>2023-11-04T23:57:10Z</time>
      </trkpt>
    </trkseg>
  </trk>
</gpx>